createdAt,value
2023-03-08T00:01:26.246Z,100136.13
2023-03-08T00:03:55.471Z,100131.59
2023-03-08T00:06:26.341Z,100134.59
2023-03-08T00:08:58.768Z,100128.75
2023-03-08T00:11:28.363Z,100132.84
2023-03-08T00:13:57.065Z,100126.69
2023-03-08T00:16:25.624Z,100132.91
2023-03-08T00:18:54.130Z,100134.88
2023-03-08T00:21:22.957Z,100131.97
2023-03-08T00:23:54.973Z,100127.63
2023-03-08T00:26:24.764Z,100125.78
2023-03-08T00:28:53.468Z,100121.50
2023-03-08T00:31:22.024Z,100124.97
2023-03-08T00:33:54.838Z,100117.34
2023-03-08T00:36:23.740Z,100132.78
2023-03-08T00:38:52.631Z,100133.19
2023-03-08T00:41:21.301Z,100127.06
2023-03-08T00:43:52.101Z,100137.13
2023-03-08T00:46:20.807Z,100135.28
2023-03-08T00:48:52.345Z,100139.28
2023-03-08T00:51:22.079Z,100144.28
2023-03-08T00:53:50.793Z,100142.31
2023-03-08T00:56:19.250Z,100142.44
2023-03-08T00:58:47.645Z,100150.75
2023-03-08T01:01:20.229Z,100145.78
2023-03-08T01:03:48.789Z,100143.75
2023-03-08T01:06:17.684Z,100131.28
2023-03-08T01:08:46.339Z,100124.44
2023-03-08T01:11:22.171Z,100123.75
2023-03-08T01:13:51.356Z,100124.75
2023-03-08T01:16:25.355Z,100115.09
2023-03-08T01:18:54.034Z,100115.09
2023-03-08T01:21:22.705Z,100115.25
2023-03-08T01:23:52.119Z,100106.63
2023-03-08T01:26:24.349Z,100103.59
2023-03-08T01:28:54.191Z,100095.53
2023-03-08T01:31:26.566Z,100098.84
2023-03-08T01:33:55.886Z,100094.94
2023-03-08T01:36:27.303Z,100108.06
2023-03-08T01:38:55.860Z,100100.22
2023-03-08T01:41:28.440Z,100100.28
2023-03-08T01:43:57.710Z,100096.78
2023-03-08T01:46:29.855Z,100097.75
2023-03-08T01:49:06.563Z,100104.03
2023-03-08T01:51:40.903Z,100097.13
2023-03-08T01:54:15.318Z,100097.94
2023-03-08T01:56:46.173Z,100086.28
2023-03-08T01:59:15.535Z,100084.38
2023-03-08T02:01:46.633Z,100086.09
2023-03-08T02:04:15.278Z,100084.38
2023-03-08T02:06:45.534Z,100080.94
2023-03-08T02:09:14.467Z,100054.97
2023-03-08T02:11:44.722Z,100055.88
2023-03-08T02:14:13.506Z,100047.84
2023-03-08T02:16:42.085Z,100042.91
2023-03-08T02:19:23.809Z,100029.66
2023-03-08T02:21:52.647Z,100026.91
2023-03-08T02:24:24.903Z,100037.72
2023-03-08T02:27:01.674Z,100026.34
2023-03-08T02:29:30.134Z,100025.50
2023-03-08T02:31:58.704Z,100024.63
2023-03-08T02:34:27.652Z,100031.84
2023-03-08T02:36:57.726Z,100035.59
2023-03-08T02:39:27.773Z,100029.59
2023-03-08T02:41:56.449Z,100033.22
2023-03-08T02:44:25.400Z,100035.97
2023-03-08T02:46:54.641Z,100033.59
2023-03-08T02:49:23.400Z,100028.31
2023-03-08T02:51:51.813Z,100016.13
2023-03-08T02:54:20.269Z,100011.78
2023-03-08T02:56:50.383Z,100022.56
2023-03-08T02:59:19.109Z,100011.91
2023-03-08T03:01:47.641Z,100013.88
2023-03-08T03:04:16.172Z,100009.34
2023-03-08T03:06:44.806Z,100015.56
2023-03-08T03:09:14.017Z,100006.06
2023-03-08T03:11:43.241Z,100018.47
2023-03-08T03:14:13.222Z,100019.34
2023-03-08T03:16:41.806Z,100018.78
2023-03-08T03:19:10.673Z,100010.13
2023-03-08T03:21:41.007Z,100007.34
2023-03-08T03:24:10.409Z,99997.59
2023-03-08T03:26:41.458Z,99994.78
2023-03-08T03:29:10.125Z,99986.03
2023-03-08T03:31:41.785Z,99988.38
2023-03-08T03:34:10.780Z,99991.28
2023-03-08T03:36:39.440Z,99998.81
2023-03-08T03:39:08.257Z,100002.66
2023-03-08T03:41:36.975Z,99996.06
2023-03-08T03:44:05.622Z,99986.19
2023-03-08T03:46:34.091Z,99990.06
2023-03-08T03:49:04.021Z,99989.59
2023-03-08T03:51:33.088Z,99984.31
2023-03-08T03:54:01.715Z,99979.47
2023-03-08T03:56:30.330Z,99965.41
2023-03-08T03:58:59.010Z,99957.63
2023-03-08T04:01:30.255Z,99953.03
2023-03-08T04:03:59.836Z,99949.38
2023-03-08T04:06:32.508Z,99946.81
2023-03-08T04:09:04.077Z,99941.59
2023-03-08T04:11:37.409Z,99938.06
2023-03-08T04:14:06.973Z,99938.16
2023-03-08T04:16:37.682Z,99928.47
2023-03-08T04:19:08.854Z,99932.38
2023-03-08T04:21:39.079Z,99934.75
2023-03-08T04:24:10.137Z,99937.47
2023-03-08T04:26:38.812Z,99925.34
2023-03-08T04:29:07.508Z,99937.44
2023-03-08T04:31:37.272Z,99927.84
2023-03-08T04:34:06.935Z,99931.66
2023-03-08T04:36:35.620Z,99920.81
2023-03-08T04:39:06.049Z,99910.97
2023-03-08T04:41:34.706Z,99924.38
2023-03-08T04:44:03.434Z,99918.00
2023-03-08T04:46:32.036Z,99919.78
2023-03-08T04:49:00.595Z,99923.38
2023-03-08T04:51:29.110Z,99913.31
2023-03-08T04:53:58.581Z,99902.34
2023-03-08T04:56:28.769Z,99906.94
2023-03-08T04:58:57.392Z,99892.44
2023-03-08T05:01:26.246Z,99877.56
2023-03-08T05:03:56.388Z,99885.63
2023-03-08T05:06:27.340Z,99868.41
2023-03-08T05:08:56.597Z,99864.22
2023-03-08T05:11:30.205Z,99870.31
2023-03-08T05:14:00.437Z,99854.69
2023-03-08T05:16:29.570Z,99854.72
2023-03-08T05:19:07.457Z,99860.81
2023-03-08T05:21:36.014Z,99863.44
2023-03-08T05:24:05.045Z,99853.03
2023-03-08T05:26:36.150Z,99838.44
2023-03-08T05:29:06.575Z,99837.72
2023-03-08T05:31:36.695Z,99832.97
2023-03-08T05:34:05.596Z,99829.75
2023-03-08T05:36:35.908Z,99811.91
2023-03-08T05:39:06.962Z,99805.91
2023-03-08T05:41:37.178Z,99812.13
2023-03-08T05:44:06.177Z,99811.13
2023-03-08T05:46:35.005Z,99805.09
2023-03-08T05:49:03.641Z,99806.28
2023-03-08T05:51:32.242Z,99798.03
2023-03-08T05:54:00.897Z,99804.34
2023-03-08T05:56:29.807Z,99805.25
2023-03-08T05:58:59.839Z,99803.31
2023-03-08T06:01:30.048Z,99793.25
2023-03-08T06:04:00.008Z,99789.53
2023-03-08T06:06:29.476Z,99781.91
2023-03-08T06:08:58.332Z,99781.03
2023-03-08T06:11:27.376Z,99786.44
2023-03-08T06:13:56.452Z,99771.41
2023-03-08T06:16:29.666Z,99791.84
2023-03-08T06:19:07.062Z,99791.53
2023-03-08T06:21:35.794Z,99779.69
2023-03-08T06:24:04.526Z,99780.63
2023-03-08T06:26:33.480Z,99787.53
2023-03-08T06:29:02.424Z,99777.63
2023-03-08T06:31:34.563Z,99778.31
2023-03-08T06:34:03.788Z,99785.75
2023-03-08T06:36:32.459Z,99778.88
2023-03-08T06:39:01.166Z,99777.34
2023-03-08T06:41:30.638Z,99782.06
2023-03-08T06:43:59.409Z,99779.16
2023-03-08T06:46:28.015Z,99782.81
2023-03-08T06:48:58.717Z,99773.69
2023-03-08T06:51:27.265Z,99784.19
2023-03-08T06:53:55.994Z,99778.50
2023-03-08T06:56:25.524Z,99776.06
2023-03-08T06:58:54.351Z,99784.69
2023-03-08T07:01:23.385Z,99763.28
2023-03-08T07:03:53.527Z,99774.50
2023-03-08T07:06:23.938Z,99772.16
2023-03-08T07:08:52.559Z,99772.75
2023-03-08T07:11:21.421Z,99768.13
2023-03-08T07:13:50.080Z,99770.06
2023-03-08T07:16:20.763Z,99758.59
2023-03-08T07:18:57.112Z,99758.53
2023-03-08T07:21:27.675Z,99753.25
2023-03-08T07:23:56.436Z,99756.00
2023-03-08T07:26:24.879Z,99748.06
2023-03-08T07:28:55.978Z,99743.75
2023-03-08T07:31:26.652Z,99753.81
2023-03-08T07:33:55.282Z,99745.66
2023-03-08T07:36:23.919Z,99737.19
2023-03-08T07:38:53.967Z,99738.41
2023-03-08T07:41:23.258Z,99743.63
2023-03-08T07:43:51.821Z,99736.88
2023-03-08T07:46:20.548Z,99735.78
2023-03-08T07:48:49.057Z,99743.09
2023-03-08T07:51:17.687Z,99739.97
2023-03-08T07:53:46.228Z,99745.19
2023-03-08T07:56:16.087Z,99739.56
2023-03-08T07:58:44.517Z,99737.75
2023-03-08T08:01:14.383Z,99735.38
2023-03-08T08:03:43.270Z,99732.66
2023-03-08T08:06:12.159Z,99728.75
2023-03-08T08:08:40.885Z,99718.69
2023-03-08T08:11:13.837Z,99712.06
2023-03-08T08:13:44.187Z,99725.63
2023-03-08T08:16:12.628Z,99718.69
2023-03-08T08:18:41.893Z,99715.75
2023-03-08T08:21:14.672Z,99711.41
2023-03-08T08:23:44.075Z,99705.91
2023-03-08T08:26:15.779Z,99708.56
2023-03-08T08:28:47.627Z,99701.31
2023-03-08T08:31:19.366Z,99707.44
2023-03-08T08:33:48.345Z,99705.75
2023-03-08T08:36:19.717Z,99705.88
2023-03-08T08:38:48.839Z,99705.59
2023-03-08T08:41:19.742Z,99702.63
2023-03-08T08:43:50.923Z,99694.25
2023-03-08T08:46:20.447Z,99697.53
2023-03-08T08:48:48.925Z,99697.81
2023-03-08T08:51:17.635Z,99711.41
2023-03-08T08:53:46.821Z,99702.44
2023-03-08T08:56:26.614Z,99698.69
2023-03-08T08:58:58.503Z,99687.91
2023-03-08T09:01:30.083Z,99685.81
2023-03-08T09:04:02.346Z,99687.59
2023-03-08T09:06:31.323Z,99679.78
2023-03-08T09:09:01.827Z,99683.28
2023-03-08T09:11:30.664Z,99675.88
2023-03-08T09:14:02.705Z,99681.53
2023-03-08T09:16:35.835Z,99675.16
2023-03-08T09:19:06.302Z,99672.59
2023-03-08T09:21:35.596Z,99673.16
2023-03-08T09:24:06.697Z,99667.06
2023-03-08T09:26:35.689Z,99660.94
2023-03-08T09:29:07.882Z,99657.44
2023-03-08T09:31:39.214Z,99658.09
2023-03-08T09:34:10.271Z,99657.34
2023-03-08T09:36:40.254Z,99636.94
2023-03-08T09:39:10.292Z,99642.00
2023-03-08T09:41:55.576Z,99647.41
2023-03-08T09:45:07.459Z,99652.91
2023-03-08T09:47:47.103Z,99652.19
2023-03-08T09:50:41.313Z,99651.75
2023-03-08T09:53:22.495Z,99657.41
2023-03-08T09:55:57.987Z,99644.69
2023-03-08T09:58:36.287Z,99644.94
2023-03-08T10:01:23.445Z,99636.84
2023-03-08T10:04:17.679Z,99640.88
2023-03-08T10:06:58.016Z,99634.25
2023-03-08T10:09:34.569Z,99641.41
2023-03-08T10:12:19.246Z,99627.06
2023-03-08T10:14:50.946Z,99633.84
2023-03-08T10:17:26.395Z,99632.13
2023-03-08T10:20:01.232Z,99623.59
2023-03-08T10:22:34.344Z,99632.53
2023-03-08T10:25:06.584Z,99635.59
2023-03-08T10:27:36.820Z,99633.16
2023-03-08T10:30:17.016Z,99622.94
2023-03-08T10:32:56.022Z,99614.16
2023-03-08T10:35:34.796Z,99610.63
2023-03-08T10:38:04.409Z,99602.66
2023-03-08T10:40:32.931Z,99597.84
2023-03-08T10:43:07.352Z,99603.88
2023-03-08T10:45:36.217Z,99595.56
2023-03-08T10:48:07.784Z,99584.50
2023-03-08T10:50:38.679Z,99573.09
2023-03-08T10:53:19.112Z,99572.25
2023-03-08T10:55:50.298Z,99585.94
2023-03-08T10:58:35.792Z,99565.47
2023-03-08T11:01:09.120Z,99559.63
2023-03-08T11:03:39.477Z,99555.34
2023-03-08T11:06:16.967Z,99556.31
2023-03-08T11:08:55.282Z,99549.34
2023-03-08T11:11:24.283Z,99563.06
2023-03-08T11:13:56.572Z,99572.75
2023-03-08T11:17:05.216Z,99581.19
2023-03-08T11:20:18.836Z,99588.72
2023-03-08T11:23:05.465Z,99584.78
2023-03-08T11:25:46.399Z,99603.31
2023-03-08T11:28:58.960Z,99615.81
2023-03-08T11:31:37.132Z,99612.16
2023-03-08T11:34:25.139Z,99614.78
2023-03-08T11:37:03.975Z,99614.50
2023-03-08T11:39:37.121Z,99604.66
2023-03-08T11:42:19.744Z,99589.50
2023-03-08T11:45:07.948Z,99570.44
2023-03-08T11:48:23.227Z,99552.06
2023-03-08T11:51:01.288Z,99549.94
2023-03-08T11:53:46.205Z,99552.69
2023-03-08T11:56:46.626Z,99546.16
2023-03-08T11:59:34.265Z,99536.53
2023-03-08T12:02:13.179Z,99532.81
2023-03-08T12:04:49.328Z,99530.91
2023-03-08T12:07:22.517Z,99531.41
2023-03-08T12:10:00.703Z,99537.84
2023-03-08T12:12:38.449Z,99543.88
2023-03-08T12:15:27.828Z,99540.84
2023-03-08T12:18:06.532Z,99533.53
2023-03-08T12:20:41.656Z,99535.88
2023-03-08T12:23:22.865Z,99547.28
2023-03-08T12:26:01.513Z,99542.53
2023-03-08T12:28:35.979Z,99534.28
2023-03-08T12:31:27.942Z,99531.03
2023-03-08T12:34:00.422Z,99529.53
2023-03-08T12:36:40.600Z,99536.69
2023-03-08T12:39:26.541Z,99528.38
2023-03-08T12:42:03.357Z,99526.22
2023-03-08T12:44:32.839Z,99507.47
2023-03-08T12:47:04.664Z,99521.66
2023-03-08T12:49:38.001Z,99513.53
2023-03-08T12:52:27.398Z,99521.47
2023-03-08T12:55:03.157Z,99528.53
2023-03-08T12:57:42.968Z,99530.75
2023-03-08T13:00:28.780Z,99525.06
2023-03-08T13:03:04.534Z,99522.19
2023-03-08T13:05:38.025Z,99536.09
2023-03-08T13:08:23.453Z,99524.28
2023-03-08T13:11:04.513Z,99531.53
2023-03-08T13:13:52.303Z,99539.34
2023-03-08T13:16:36.166Z,99546.16
2023-03-08T13:19:22.686Z,99534.44
2023-03-08T13:22:00.027Z,99539.19
2023-03-08T13:24:41.556Z,99555.63
2023-03-08T13:27:26.045Z,99557.66
2023-03-08T13:30:20.161Z,99552.81
2023-03-08T13:32:50.373Z,99554.47
2023-03-08T13:35:20.199Z,99553.22
2023-03-08T13:37:55.994Z,99552.06
2023-03-08T13:40:26.169Z,99545.56
2023-03-08T13:42:56.899Z,99529.88
2023-03-08T13:45:28.638Z,99523.44
2023-03-08T13:48:00.556Z,99526.00
2023-03-08T13:50:33.654Z,99511.72
2023-03-08T13:53:05.062Z,99503.69
2023-03-08T13:55:37.107Z,99507.16
2023-03-08T13:58:06.669Z,99515.22
2023-03-08T14:00:38.148Z,99508.75
2023-03-08T14:03:07.828Z,99511.09
2023-03-08T14:05:45.746Z,99490.53
2023-03-08T14:08:23.488Z,99496.94
2023-03-08T14:10:56.489Z,99486.81
2023-03-08T14:13:30.197Z,99485.94
2023-03-08T14:16:03.223Z,99481.28
2023-03-08T14:18:37.109Z,99475.81
2023-03-08T14:21:14.435Z,99466.78
2023-03-08T14:23:47.294Z,99474.66
2023-03-08T14:26:36.463Z,99484.06
2023-03-08T14:29:19.181Z,99481.50
2023-03-08T14:32:06.263Z,99488.94
2023-03-08T14:34:39.366Z,99499.22
2023-03-08T14:37:19.379Z,99483.06
2023-03-08T14:39:51.728Z,99482.44
2023-03-08T14:42:26.929Z,99483.50
2023-03-08T14:44:58.943Z,99485.31
2023-03-08T14:47:31.389Z,99473.72
2023-03-08T14:50:05.934Z,99488.03
2023-03-08T14:52:37.675Z,99472.84
2023-03-08T14:55:23.446Z,99473.91
2023-03-08T14:57:57.932Z,99457.59
2023-03-08T15:00:29.302Z,99462.84
2023-03-08T15:03:00.710Z,99449.69
2023-03-08T15:05:31.290Z,99455.06
2023-03-08T15:08:01.882Z,99454.91
2023-03-08T15:10:33.842Z,99455.84
2023-03-08T15:13:02.735Z,99448.00
2023-03-08T15:15:32.156Z,99458.63
2023-03-08T15:18:02.310Z,99453.28
2023-03-08T15:20:31.044Z,99464.09
2023-03-08T15:23:05.451Z,99460.53
2023-03-08T15:25:38.320Z,99458.34
2023-03-08T15:28:07.900Z,99454.78
2023-03-08T15:30:36.500Z,99455.25
2023-03-08T15:33:06.528Z,99451.47
2023-03-08T15:35:35.635Z,99443.28
2023-03-08T15:38:04.275Z,99443.22
2023-03-08T15:40:35.152Z,99453.19
2023-03-08T15:43:03.769Z,99439.47
2023-03-08T15:45:32.405Z,99448.09
2023-03-08T15:48:02.874Z,99447.75
2023-03-08T15:50:34.571Z,99442.34
2023-03-08T15:53:03.967Z,99449.06
2023-03-08T15:55:33.527Z,99449.03
2023-03-08T15:58:02.048Z,99439.69
2023-03-08T16:00:30.986Z,99442.78
2023-03-08T16:02:59.837Z,99444.94
2023-03-08T16:05:29.299Z,99434.03
2023-03-08T16:08:04.235Z,99438.84
2023-03-08T16:10:40.642Z,99438.38
2023-03-08T16:13:12.788Z,99434.00
2023-03-08T16:15:41.906Z,99436.84
2023-03-08T16:18:10.403Z,99436.03
2023-03-08T16:20:41.523Z,99431.53
2023-03-08T16:23:14.093Z,99434.91
2023-03-08T16:25:43.413Z,99452.56
2023-03-08T16:28:16.102Z,99441.91
2023-03-08T16:30:47.632Z,99447.13
2023-03-08T16:33:20.232Z,99443.63
2023-03-08T16:36:08.085Z,99444.09
2023-03-08T16:38:41.325Z,99442.22
2023-03-08T16:41:13.080Z,99439.00
2023-03-08T16:43:48.080Z,99426.38
2023-03-08T16:46:20.798Z,99438.91
2023-03-08T16:48:51.426Z,99437.56
2023-03-08T16:51:23.005Z,99439.25
2023-03-08T16:53:54.915Z,99428.47
2023-03-08T16:56:29.057Z,99426.53
2023-03-08T16:59:02.041Z,99425.50
2023-03-08T17:01:34.718Z,99436.97
2023-03-08T17:04:04.178Z,99450.59
2023-03-08T17:06:34.454Z,99440.59
2023-03-08T17:09:06.189Z,99438.81
2023-03-08T17:11:35.912Z,99439.06
2023-03-08T17:14:08.413Z,99429.88
2023-03-08T17:16:39.941Z,99437.19
2023-03-08T17:19:13.304Z,99438.63
2023-03-08T17:21:41.952Z,99438.69
2023-03-08T17:24:15.345Z,99438.28
2023-03-08T17:26:50.149Z,99435.31
2023-03-08T17:29:22.108Z,99435.94
2023-03-08T17:31:54.110Z,99435.00
2023-03-08T17:34:23.165Z,99433.28
2023-03-08T17:36:52.564Z,99435.50
2023-03-08T17:39:22.845Z,99436.22
2023-03-08T17:41:51.601Z,99428.34
2023-03-08T17:44:20.130Z,99424.38
2023-03-08T17:46:48.698Z,99416.16
2023-03-08T17:49:23.202Z,99420.94
2023-03-08T17:51:52.358Z,99426.06
2023-03-08T17:54:23.126Z,99444.94
2023-03-08T17:56:53.225Z,99436.50
2023-03-08T17:59:21.811Z,99437.75
2023-03-08T18:01:50.345Z,99439.03
2023-03-08T18:04:19.142Z,99454.19
2023-03-08T18:06:47.665Z,99448.19
2023-03-08T18:09:17.940Z,99445.25
2023-03-08T18:11:50.167Z,99433.28
2023-03-08T18:14:28.548Z,99437.03
2023-03-08T18:17:09.052Z,99443.00
2023-03-08T18:19:41.578Z,99445.72
2023-03-08T18:22:10.609Z,99445.34
2023-03-08T18:24:42.508Z,99455.16
2023-03-08T18:27:12.556Z,99444.38
2023-03-08T18:29:41.239Z,99445.69
2023-03-08T18:32:13.966Z,99422.56
2023-03-08T18:34:42.723Z,99422.69
2023-03-08T18:37:11.512Z,99424.13
2023-03-08T18:39:40.177Z,99440.31
2023-03-08T18:42:10.371Z,99435.84
2023-03-08T18:44:43.848Z,99436.56
2023-03-08T18:47:12.681Z,99434.50
2023-03-08T18:49:46.896Z,99434.66
2023-03-08T18:52:18.489Z,99436.03
2023-03-08T18:54:49.833Z,99425.84
2023-03-08T18:57:18.230Z,99426.38
2023-03-08T18:59:54.118Z,99432.75
2023-03-08T19:02:26.899Z,99415.84
2023-03-08T19:04:57.476Z,99420.56
2023-03-08T19:07:26.674Z,99407.28
2023-03-08T19:09:55.858Z,99399.06
2023-03-08T19:12:24.840Z,99399.16
2023-03-08T19:14:55.537Z,99414.47
2023-03-08T19:17:27.263Z,99404.13
2023-03-08T19:19:56.029Z,99392.91
2023-03-08T19:22:24.896Z,99404.56
2023-03-08T19:24:53.605Z,99411.69
2023-03-08T19:27:22.857Z,99410.13
2023-03-08T19:29:52.222Z,99407.03
2023-03-08T19:32:22.281Z,99389.50
2023-03-08T19:34:53.274Z,99398.81
2023-03-08T19:37:22.437Z,99401.34
2023-03-08T19:39:51.570Z,99401.84
2023-03-08T19:42:20.253Z,99401.41
2023-03-08T19:44:50.704Z,99401.66
2023-03-08T19:47:21.416Z,99399.69
2023-03-08T19:49:50.946Z,99401.06
2023-03-08T19:52:20.288Z,99408.47
2023-03-08T19:54:49.052Z,99411.16
2023-03-08T19:57:18.531Z,99397.97
2023-03-08T19:59:50.957Z,99405.00
2023-03-08T20:02:21.641Z,99405.41
2023-03-08T20:04:50.656Z,99410.53
2023-03-08T20:07:19.333Z,99398.19
2023-03-08T20:09:48.405Z,99391.28
2023-03-08T20:12:17.455Z,99399.50
2023-03-08T20:14:46.125Z,99404.06
2023-03-08T20:17:16.444Z,99402.63
2023-03-08T20:19:46.707Z,99396.63
2023-03-08T20:22:15.166Z,99404.72
2023-03-08T20:24:47.387Z,99410.78
2023-03-08T20:27:16.122Z,99396.84
2023-03-08T20:29:44.981Z,99404.31
2023-03-08T20:32:16.564Z,99399.22
2023-03-08T20:34:46.661Z,99402.34
2023-03-08T20:37:15.268Z,99395.28
2023-03-08T20:39:45.034Z,99400.78
2023-03-08T20:42:13.794Z,99411.06
2023-03-08T20:44:42.846Z,99408.00
2023-03-08T20:47:11.881Z,99411.22
2023-03-08T20:49:42.421Z,99418.16
2023-03-08T20:52:13.028Z,99396.53
2023-03-08T20:54:42.631Z,99395.25
2023-03-08T20:57:12.139Z,99382.91
2023-03-08T20:59:41.029Z,99388.47
2023-03-08T21:02:12.233Z,99401.03
2023-03-08T21:04:41.069Z,99412.50
2023-03-08T21:07:11.851Z,99405.13
2023-03-08T21:09:40.853Z,99399.50
2023-03-08T21:12:11.410Z,99396.59
2023-03-08T21:14:40.355Z,99401.03
2023-03-08T21:17:10.511Z,99399.31
2023-03-08T21:19:40.361Z,99407.50
2023-03-08T21:22:10.827Z,99403.06
2023-03-08T21:24:41.052Z,99403.63
2023-03-08T21:27:10.446Z,99402.75
2023-03-08T21:29:39.250Z,99404.91
2023-03-08T21:32:08.163Z,99401.69
2023-03-08T21:34:36.696Z,99390.75
2023-03-08T21:37:08.209Z,99387.53
2023-03-08T21:39:36.857Z,99392.72
2023-03-08T21:42:08.308Z,99398.31
2023-03-08T21:44:38.346Z,99389.28
2023-03-08T21:47:07.767Z,99390.56
2023-03-08T21:49:36.953Z,99389.25
2023-03-08T21:52:06.429Z,99385.84
2023-03-08T21:54:34.998Z,99377.44
2023-03-08T21:57:03.700Z,99368.81
2023-03-08T21:59:33.834Z,99355.50
2023-03-08T22:02:03.173Z,99355.97
2023-03-08T22:04:32.112Z,99352.47
2023-03-08T22:07:03.880Z,99361.97
2023-03-08T22:09:32.970Z,99358.84
2023-03-08T22:12:01.796Z,99345.34
2023-03-08T22:14:33.416Z,99352.22
2023-03-08T22:17:03.438Z,99354.78
2023-03-08T22:19:32.478Z,99353.63
2023-03-08T22:22:01.172Z,99356.69
2023-03-08T22:24:32.656Z,99354.19
2023-03-08T22:27:01.868Z,99341.03
2023-03-08T22:29:37.319Z,99351.09
2023-03-08T22:32:11.296Z,99349.91
2023-03-08T22:34:50.108Z,99349.91
2023-03-08T22:37:30.101Z,99364.19
2023-03-08T22:40:03.008Z,99375.22
2023-03-08T22:42:32.531Z,99376.56
2023-03-08T22:45:05.419Z,99375.22
2023-03-08T22:58:58.349Z,99382.59
2023-03-08T23:01:30.837Z,99385.56
2023-03-08T23:04:02.634Z,99378.00
2023-03-08T23:06:33.975Z,99380.31
2023-03-08T23:09:07.839Z,99372.44
2023-03-08T23:11:39.849Z,99366.97
2023-03-08T23:14:10.615Z,99362.78
2023-03-08T23:16:43.525Z,99367.75
2023-03-08T23:19:16.149Z,99367.47
2023-03-08T23:21:46.102Z,99360.91
2023-03-08T23:24:18.024Z,99381.63
2023-03-08T23:26:47.528Z,99395.16
2023-03-08T23:29:17.372Z,99381.63
2023-03-08T23:31:50.591Z,99378.19
2023-03-08T23:34:19.117Z,99362.16
2023-03-08T23:36:47.834Z,99369.69
2023-03-08T23:39:16.895Z,99362.59
2023-03-08T23:41:47.879Z,99374.38
2023-03-08T23:44:18.228Z,99364.34
2023-03-08T23:46:48.625Z,99355.53
2023-03-08T23:49:18.027Z,99366.09
2023-03-08T23:51:47.322Z,99366.25
2023-03-08T23:54:17.393Z,99369.22
2023-03-08T23:56:46.296Z,99377.84
2023-03-08T23:59:18.791Z,99367.59
